KAKQ/AKQ METAR and TAF weather

Enter ICAO airport designator
Station Type Date Time Source
KAKQ METAR 2019/08/19 21:54 UTC NOAA

KAKQ 192154Z AUTO VRB03KT 10SM CLR 34/22 A2997 RMK AO2 SLP147 T03440217


Station Type Date Time Source
KAKQ Decoded METAR 2019/08/19 21:54 UTC NOAA

WAKEFIELD MUNICIPAL AIRPOR, VA, United States (KAKQ) 36-59N 077-00W 33M
Aug 19, 2019 - 05:54 PM EDT / 2019.08.19 2154 UTC
Wind: Variable at 3 MPH (3 KT):0
Visibility: 10 mile(s):0
Sky conditions: clear
Temperature: 93.9 F (34.4 C)
Heat index: 100.8 F (38.2 C):1
Dew Point: 71.1 F (21.7 C)
Relative Humidity: 47%
Pressure (altimeter): 29.97 in. Hg (1014 hPa)
ob: KAKQ 192154Z AUTO VRB03KT 10SM CLR 34/22 A2997 RMK AO2 SLP147 T03440217
cycle: 22

Station Type Date Time Source
KAKQ TAF UTC NOAA

Error!

Example: see airport list